EGLC Airport Information

Runway Information
Runway 10 Length 4948 ft width 98 ft
Elevation 16 ft Threshold 358 ft Heading 93
Runway 28 Length 4948 ft Width 98 ft
Elevation 19 ft Threshold 211 ft Heading 273
Airport Frequencies
Type APP Name APP Frequency 132.7 MHZ
Type ATIS Name ATIS Frequency 136.35 MHZ
Type GND Name GND Frequency 121.825 MHZ
Type TWR Name TWR Frequency 118.075 MHZ
Airport Navaids
Type NDB Name City Frequency 322 KHZ
Airport Weather Information & NOTAM
ADDS - METARS form results

(1510 UTC 08 December 2019)
Data provider http://aviationweather.gov/metar/data/
 
METAR text: EGLC 081450Z AUTO 24018G28KT 9999 SCT038 BKN044 11/03 Q0998
Conditions at: EGLC (LONDON CITY AIRP, GB) observed 1450 UTC 08 December 2019
Temperature: 11.0°C (52°F)
Dewpoint: 3.0°C (37°F) [RH = 58%]
Pressure (altimeter): 29.47 inches Hg (998.0 mb)
Winds: from the WSW (240 degrees) at 21 MPH (18 knots; 9.3 m/s)
gusting to 32 MPH (28 knots; 14.4 m/s)
Visibility: 6 or more miles (10+ km)
Ceiling: 4400 feet AGL
Clouds: scattered clouds at 3800 feet AGL
broken clouds at 4400 feet AGL
Weather: no significant weather observed at this time

METAR text: EGLC 081420Z AUTO 25018G28KT 9999 BKN042 11/03 Q0999
Conditions at: EGLC (LONDON CITY AIRP, GB) observed 1420 UTC 08 December 2019
Temperature: 11.0°C (52°F)
Dewpoint: 3.0°C (37°F) [RH = 58%]
Pressure (altimeter): 29.50 inches Hg (999.0 mb)
Winds: from the WSW (250 degrees) at 21 MPH (18 knots; 9.3 m/s)
gusting to 32 MPH (28 knots; 14.4 m/s)
Visibility: 6 or more miles (10+ km)
Ceiling: 4200 feet AGL
Clouds: broken clouds at 4200 feet AGL
Weather: no significant weather observed at this time

Forecast for: EGLC (LONDON CITY AIRP, GB)
Text: TAF EGLC 081355Z 0815/0821 25015G25KT 9999 SCT025
Forecast period: 1500 to 2100 UTC 08 December 2019
Forecast type: FROM: standard forecast or significant change
Winds: from the WSW (250 degrees) at 17 MPH (15 knots; 7.7 m/s)
gusting to 29 MPH (25 knots; 12.9 m/s)
Visibility: 6 or more miles 10+ km)
Ceiling: at least 12,000 feet AGL
Clouds: scattered clouds at 2500 feet AGL
Weather: no significant weather forecast for this period
Text: TEMPO 0815/0821 7000 SHRA
Forecast period: 1500 to 2100 UTC 08 December 2019
Forecast type: TEMPORARY: The following changes expected for less than half the time period
Visibility: 4 miles (7 km)
Ceiling: unknown
Clouds: missing
Weather: SHRA  (rain showers)
Text: PROB30
Forecast period: 1500 to 1900 UTC 08 December 2019
Forecast type: TEMPORARY: The following changes expected for less than half the time period
Winds: from the W (260 degrees) at 23 MPH (20 knots; 10.3 m/s)
gusting to 40 MPH (35 knots; 18.0 m/s)
Visibility: 2.49 miles (4.01 km)
Ceiling: unknown
Clouds: missing
Weather: +SHRA  (heavy rain showers)